Time;durP1;ratioP1;P1;durP2;ratioP2;P2;SDS_P1;SDS_P2;PMS_P1;PMS_P2;Temp;Humidity;BMP_temperature;BMP_pressure;BME280_temperature;BME280_humidity;BME280_pressure;Samples;Min_cycle;Max_cycle;Signal;HPM_P1;HPM_P2
2021/11/28 00:02:20;;;;;;;112.43;84.97;;;;;;;1.75;100.00;99792.28;5013717;28;20543;-77
2021/11/28 00:04:47;;;;;;;96.05;76.15;;;;;;;1.72;100.00;99784.78;5013715;28;20470;-76
2021/11/28 00:07:26;;;;;;;82.15;69.05;;;;;;;1.76;100.00;99777.44;5013669;28;20049;-77
2021/11/28 00:10:02;;;;;;;84.05;70.30;;;;;;;1.63;100.00;99775.34;5014058;28;20053;-79
2021/11/28 00:12:39;;;;;;;61.90;55.72;;;;;;;1.60;100.00;99767.81;5013852;28;20152;-76
2021/11/28 00:15:09;;;;;;;59.70;53.17;;;;;;;1.66;100.00;99780.22;5013739;28;20046;-76
2021/11/28 00:17:37;;;;;;;102.82;77.03;;;;;;;1.55;100.00;99772.78;5013512;28;20472;-79
2021/11/28 00:20:06;;;;;;;163.60;107.50;;;;;;;1.23;100.00;99784.16;5013478;28;20057;-79
2021/11/28 00:22:33;;;;;;;120.50;91.60;;;;;;;1.35;100.00;99778.41;5013463;28;20088;-79
2021/11/28 00:24:59;;;;;;;126.22;86.35;;;;;;;1.32;100.00;99776.13;5013511;28;20165;-79
2021/11/28 00:27:26;;;;;;;137.68;93.70;;;;;;;1.39;100.00;99773.63;5013439;28;20058;-78
2021/11/28 00:29:53;;;;;;;121.85;91.15;;;;;;;1.37;100.00;99767.78;5013647;28;20050;-79
2021/11/28 00:32:21;;;;;;;116.57;85.22;;;;;;;1.35;100.00;99760.06;5013644;28;20113;-77
2021/11/28 00:34:48;;;;;;;104.57;80.65;;;;;;;1.21;100.00;99762.56;5013590;28;20050;-79
2021/11/28 00:37:14;;;;;;;91.68;75.55;;;;;;;1.34;100.00;99761.06;5013288;28;20474;-80
2021/11/28 00:39:43;;;;;;;95.03;71.22;;;;;;;1.51;100.00;99771.47;5013363;28;20521;-78
2021/11/28 00:42:10;;;;;;;97.28;70.47;;;;;;;1.36;100.00;99766.97;5013472;28;20469;-80
2021/11/28 00:44:37;;;;;;;96.05;79.30;;;;;;;1.30;100.00;99775.50;5013587;28;20057;-78
2021/11/28 00:47:04;;;;;;;77.55;67.43;;;;;;;1.08;100.00;99763.91;5013603;28;20046;-78
2021/11/28 00:49:34;;;;;;;70.68;62.42;;;;;;;1.20;100.00;99767.00;5013347;28;20429;-80
2021/11/28 00:52:01;;;;;;;75.10;67.18;;;;;;;1.27;100.00;99765.34;5013474;28;20057;-77
2021/11/28 00:54:29;;;;;;;73.78;66.05;;;;;;;1.36;100.00;99773.97;5013166;28;20046;-80
2021/11/28 00:56:57;;;;;;;74.65;66.60;;;;;;;1.26;100.00;99773.38;5013018;28;20112;-76
2021/11/28 00:59:24;;;;;;;79.95;69.07;;;;;;;1.33;100.00;99758.59;5013074;28;20049;-77
2021/11/28 01:01:51;;;;;;;84.50;70.95;;;;;;;1.52;100.00;99771.31;5012956;28;20077;-78
2021/11/28 01:04:18;;;;;;;91.63;70.97;;;;;;;1.22;100.00;99756.38;5013250;28;20042;-77
2021/11/28 01:06:47;;;;;;;58.67;51.83;;;;;;;1.03;100.00;99763.63;5013134;28;20046;-80
2021/11/28 01:09:14;;;;;;;63.40;57.10;;;;;;;1.12;100.00;99767.00;5016987;28;20452;-78
2021/11/28 01:11:41;;;;;;;62.67;57.33;;;;;;;1.27;100.00;99767.97;5017052;28;20050;-79
2021/11/28 01:14:07;;;;;;;65.75;60.30;;;;;;;1.47;100.00;99759.72;5016920;28;20123;-80
2021/11/28 01:16:34;;;;;;;74.75;68.05;;;;;;;1.33;100.00;99759.44;5016480;28;20536;-77
2021/11/28 01:19:03;;;;;;;70.72;63.00;;;;;;;1.34;100.00;99758.47;5016763;28;20450;-78
2021/11/28 01:21:29;;;;;;;69.28;62.00;;;;;;;1.52;100.00;99744.31;5016715;28;20054;-76
2021/11/28 01:23:58;;;;;;;68.20;60.95;;;;;;;1.63;100.00;99751.78;5016511;28;20536;-79
2021/11/28 01:26:27;;;;;;;64.32;57.92;;;;;;;1.56;100.00;99748.22;5016821;28;20042;-79
2021/11/28 01:28:53;;;;;;;63.03;56.97;;;;;;;1.49;100.00;99745.47;5016567;28;20050;-80
2021/11/28 01:31:20;;;;;;;64.82;58.38;;;;;;;1.45;100.00;99745.97;5016393;28;20128;-77
2021/11/28 01:33:47;;;;;;;56.15;50.92;;;;;;;1.53;100.00;99738.91;5016538;28;20107;-77
2021/11/28 01:36:14;;;;;;;61.40;55.45;;;;;;;1.46;100.00;99734.53;5016089;28;20120;-79
2021/11/28 01:38:40;;;;;;;63.92;57.28;;;;;;;1.28;100.00;99738.19;5016577;28;20119;-80
2021/11/28 01:41:08;;;;;;;102.68;81.40;;;;;;;1.20;100.00;99733.00;5016127;28;20045;-78
2021/11/28 01:43:35;;;;;;;116.25;92.68;;;;;;;1.21;100.00;99731.19;5016194;28;20551;-81
2021/11/28 01:46:02;;;;;;;107.05;81.93;;;;;;;0.99;100.00;99733.53;5016234;28;20049;-79
2021/11/28 01:48:29;;;;;;;114.20;87.70;;;;;;;0.83;100.00;99723.94;5016409;28;20108;-77
2021/11/28 01:50:56;;;;;;;95.50;77.07;;;;;;;0.85;100.00;99731.66;5015961;28;20489;-78
2021/11/28 01:53:25;;;;;;;92.95;75.75;;;;;;;1.16;100.00;99721.25;5016225;28;20396;-77
2021/11/28 01:55:53;;;;;;;113.88;82.57;;;;;;;1.03;100.00;99724.41;5015752;28;20500;-77
2021/11/28 01:58:22;;;;;;;217.20;116.40;;;;;;;1.34;100.00;99728.88;5016051;28;20046;-78
2021/11/28 02:00:53;;;;;;;319.25;148.48;;;;;;;1.27;100.00;99722.66;5015724;28;20041;-79
2021/11/28 02:03:21;;;;;;;391.58;177.50;;;;;;;1.31;100.00;99718.75;5015686;28;20445;-80
2021/11/28 02:05:50;;;;;;;330.98;150.07;;;;;;;1.25;100.00;99707.16;5015631;28;20453;-79
2021/11/28 02:08:17;;;;;;;178.48;100.13;;;;;;;1.02;100.00;99714.09;5016018;28;20108;-77
2021/11/28 02:10:45;;;;;;;105.55;74.25;;;;;;;1.01;100.00;99709.84;5015504;28;20470;-77
2021/11/28 02:13:14;;;;;;;84.10;65.55;;;;;;;1.18;100.00;99710.59;5015444;28;20050;-77
2021/11/28 02:15:42;;;;;;;127.80;82.03;;;;;;;1.06;100.00;99716.22;5015434;28;20050;-79
2021/11/28 02:18:09;;;;;;;141.68;89.40;;;;;;;1.02;100.00;99709.69;5015360;28;20123;-79
2021/11/28 02:20:42;;;;;;;191.85;104.53;;;;;;;0.91;100.00;99699.59;5015098;28;20046;-77
2021/11/28 02:23:09;;;;;;;145.60;90.47;;;;;;;0.85;100.00;99700.28;5015242;28;20050;-79
2021/11/28 02:25:36;;;;;;;113.18;76.30;;;;;;;0.98;100.00;99702.34;5015654;28;20116;-77
2021/11/28 02:28:02;;;;;;;106.10;72.05;;;;;;;1.07;100.00;99704.75;5015501;28;20057;-78
2021/11/28 02:30:29;;;;;;;89.25;63.33;;;;;;;1.29;100.00;99694.53;5015554;28;20045;-78
2021/11/28 02:32:58;;;;;;;94.78;67.20;;;;;;;1.20;100.00;99698.19;5015408;28;20116;-78
2021/11/28 02:35:28;;;;;;;78.20;66.78;;;;;;;1.10;100.00;99696.56;5015082;28;20465;-77
2021/11/28 02:37:56;;;;;;;68.70;61.45;;;;;;;1.10;100.00;99695.75;5015204;28;20093;-76
2021/11/28 02:40:24;;;;;;;82.53;67.60;;;;;;;1.11;100.00;99689.53;5015265;28;20057;-76
2021/11/28 02:42:52;;;;;;;84.03;66.50;;;;;;;1.15;100.00;99693.47;5014949;28;20549;-76
2021/11/28 02:45:21;;;;;;;73.88;63.90;;;;;;;1.22;100.00;99697.03;5014750;28;20459;-77
2021/11/28 02:47:48;;;;;;;64.85;58.45;;;;;;;1.22;100.00;99691.78;5015007;28;20108;-77
2021/11/28 02:50:17;;;;;;;68.38;61.47;;;;;;;1.29;100.00;99682.28;5015119;28;20058;-80
2021/11/28 02:52:52;;;;;;;72.47;64.57;;;;;;;1.28;100.00;99690.31;5014737;28;20104;-77
2021/11/28 02:55:22;;;;;;;114.00;76.93;;;;;;;1.27;100.00;99680.81;5014643;28;20470;-79
2021/11/28 02:57:49;;;;;;;95.05;70.80;;;;;;;1.23;100.00;99687.38;5014704;28;20467;-80
2021/11/28 03:02:51;;;;;;;82.53;68.97;;;;;;;1.27;100.00;99676.41;5056199;22;20064;-81
2021/11/28 03:05:17;;;;;;;94.95;69.07;;;;;;;1.18;100.00;99684.44;5053555;28;20377;-80
2021/11/28 03:07:44;;;;;;;149.93;85.65;;;;;;;1.21;100.00;99674.47;5053709;28;20049;-79
2021/11/28 03:10:31;;;;;;;126.00;82.00;;;;;;;1.26;100.00;99674.75;5053930;28;20129;-80
2021/11/28 03:12:59;;;;;;;103.68;74.95;;;;;;;1.13;100.00;99671.88;5053425;28;20476;-77
2021/11/28 03:15:26;;;;;;;69.00;58.58;;;;;;;1.13;100.00;99667.47;5053391;28;20045;-77
2021/11/28 03:17:53;;;;;;;75.05;67.05;;;;;;;1.34;100.00;99659.03;5053580;28;20451;-77
2021/11/28 03:20:20;;;;;;;85.38;76.15;;;;;;;1.23;100.00;99658.59;5053554;28;20056;-78
2021/11/28 03:22:47;;;;;;;119.50;92.35;;;;;;;0.98;100.00;99666.56;5053796;28;20126;-77
2021/11/28 03:25:16;;;;;;;119.07;86.40;;;;;;;0.68;100.00;99662.88;5053369;28;20076;-80
2021/11/28 03:27:44;;;;;;;114.22;86.68;;;;;;;0.94;100.00;99652.19;5053343;28;20044;-80
2021/11/28 03:30:11;;;;;;;134.10;93.63;;;;;;;1.10;100.00;99659.16;5053002;28;20131;-78
2021/11/28 03:32:39;;;;;;;140.30;99.68;;;;;;;1.13;100.00;99640.50;5053488;28;20045;-77
2021/11/28 03:35:07;;;;;;;134.82;99.60;;;;;;;0.98;100.00;99643.00;5053404;28;20115;-80
2021/11/28 03:37:34;;;;;;;125.90;93.53;;;;;;;0.87;100.00;99644.19;5052957;28;20139;-80
2021/11/28 03:40:02;;;;;;;132.35;94.32;;;;;;;0.95;100.00;99643.34;5053063;28;20056;-80
2021/11/28 03:42:28;;;;;;;127.85;93.32;;;;;;;1.02;100.00;99646.09;5053238;28;20057;-80
2021/11/28 03:44:56;;;;;;;124.57;93.93;;;;;;;0.91;100.00;99648.13;5053085;28;20049;-77
2021/11/28 03:47:23;;;;;;;112.28;85.82;;;;;;;1.09;100.00;99649.66;5053194;28;20106;-80
2021/11/28 03:49:50;;;;;;;114.60;81.57;;;;;;;1.19;100.00;99637.19;5053397;28;20049;-80
2021/11/28 03:52:17;;;;;;;111.70;76.35;;;;;;;0.96;100.00;99641.56;5052812;28;20128;-80
2021/11/28 03:54:44;;;;;;;91.45;70.40;;;;;;;0.82;100.00;99649.13;5052722;28;20102;-80
2021/11/28 03:57:10;;;;;;;81.30;64.43;;;;;;;0.86;100.00;99644.38;5053278;28;20052;-78
2021/11/28 03:59:38;;;;;;;76.95;65.10;;;;;;;1.00;100.00;99653.28;5053510;28;20079;-79
2021/11/28 04:02:06;;;;;;;67.88;60.65;;;;;;;0.79;100.00;99657.31;5053304;28;20057;-80
2021/11/28 04:04:33;;;;;;;66.88;59.80;;;;;;;0.78;100.00;99650.44;5053599;28;20049;-80
2021/11/28 04:06:59;;;;;;;68.70;61.47;;;;;;;0.82;100.00;99656.97;5053579;28;20052;-80
2021/11/28 04:09:26;;;;;;;73.05;65.03;;;;;;;0.65;100.00;99660.59;5053436;28;20110;-79
2021/11/28 04:11:53;;;;;;;74.90;65.28;;;;;;;0.36;100.00;99661.94;5053229;28;20056;-77
2021/11/28 04:14:20;;;;;;;112.28;81.35;;;;;;;0.23;100.00;99667.69;5053488;28;20187;-77
2021/11/28 04:16:47;;;;;;;112.45;82.97;;;;;;;0.41;100.00;99672.72;5053303;28;20080;-77
2021/11/28 04:19:15;;;;;;;116.78;82.15;;;;;;;0.47;100.00;99676.47;5053480;28;20044;-79
2021/11/28 04:21:44;;;;;;;89.32;72.47;;;;;;;0.64;100.00;99683.31;5053422;28;20130;-76
2021/11/28 04:24:12;;;;;;;87.10;67.10;;;;;;;0.78;100.00;99676.56;5052994;28;20049;-77
2021/11/28 04:26:39;;;;;;;84.97;68.78;;;;;;;0.52;100.00;99676.81;5053294;28;20118;-77
2021/11/28 04:29:05;;;;;;;66.72;59.85;;;;;;;0.05;100.00;99672.25;5052974;28;20052;-78
2021/11/28 04:31:32;;;;;;;75.55;63.60;;;;;;;-0.03;100.00;99670.47;5053021;28;20052;-77
2021/11/28 04:33:59;;;;;;;69.32;61.88;;;;;;;0.31;100.00;99679.13;5052384;28;20049;-80
2021/11/28 04:36:27;;;;;;;64.65;57.75;;;;;;;0.25;100.00;99680.59;5052548;28;20114;-77
2021/11/28 04:38:54;;;;;;;63.25;56.58;;;;;;;0.33;100.00;99683.19;5052671;28;20053;-78
2021/11/28 04:41:21;;;;;;;71.13;63.42;;;;;;;0.62;100.00;99692.31;5052821;28;20456;-76
2021/11/28 04:43:48;;;;;;;71.40;63.38;;;;;;;0.37;100.00;99688.91;5055474;28;20477;-80
2021/11/28 04:46:14;;;;;;;86.25;69.88;;;;;;;0.21;100.00;99694.94;5056402;28;20056;-77
2021/11/28 04:48:41;;;;;;;81.13;66.15;;;;;;;0.09;100.00;99704.94;5056247;28;20044;-79
2021/11/28 04:51:08;;;;;;;81.97;64.75;;;;;;;-0.02;100.00;99716.50;5055995;28;20045;-77
2021/11/28 04:53:36;;;;;;;86.75;64.00;;;;;;;0.08;100.00;99710.28;5056190;28;20543;-77
2021/11/28 04:56:03;;;;;;;95.55;69.45;;;;;;;0.28;100.00;99703.78;5055920;28;20049;-80
2021/11/28 04:58:29;;;;;;;88.88;71.20;;;;;;;0.45;100.00;99702.78;5056324;28;20053;-80
2021/11/28 05:00:56;;;;;;;87.57;69.07;;;;;;;0.52;100.00;99717.81;5056101;28;20053;-78
2021/11/28 05:03:23;;;;;;;85.70;74.32;;;;;;;0.57;100.00;99718.09;5056044;28;20064;-80
2021/11/28 05:05:50;;;;;;;89.65;72.53;;;;;;;0.66;100.00;99711.88;5056148;28;20053;-77
2021/11/28 05:08:16;;;;;;;80.65;71.82;;;;;;;0.49;100.00;99705.06;5056545;28;20053;-78
2021/11/28 05:10:45;;;;;;;84.53;68.25;;;;;;;0.54;100.00;99707.97;5055824;28;20119;-78
2021/11/28 05:13:11;;;;;;;82.45;67.03;;;;;;;0.47;100.00;99709.63;5055854;28;20064;-78
2021/11/28 05:15:38;;;;;;;84.25;66.97;;;;;;;0.36;100.00;99700.31;5055599;28;20477;-80
2021/11/28 05:18:05;;;;;;;76.97;64.25;;;;;;;0.17;100.00;99701.47;5055772;28;20049;-77
2021/11/28 05:20:32;;;;;;;77.13;61.75;;;;;;;-0.03;100.00;99703.59;5056289;28;20466;-77
2021/11/28 05:23:00;;;;;;;81.38;63.40;;;;;;;0.26;100.00;99700.50;5055440;28;20052;-80
2021/11/28 05:25:26;;;;;;;92.13;70.85;;;;;;;0.25;100.00;99698.06;5055768;28;20122;-79
2021/11/28 05:27:55;;;;;;;95.45;72.20;;;;;;;-0.27;100.00;99705.19;5055490;28;20527;-77
2021/11/28 05:30:21;;;;;;;94.43;71.30;;;;;;;0.00;100.00;99721.56;5055320;28;20519;-79
2021/11/28 05:32:48;;;;;;;81.05;68.43;;;;;;;0.03;100.00;99725.63;5055676;28;20044;-77
2021/11/28 05:35:15;;;;;;;99.45;75.45;;;;;;;0.17;100.00;99725.00;5055614;28;20468;-77
2021/11/28 05:37:42;;;;;;;88.70;71.35;;;;;;;-0.18;100.00;99719.09;5055251;28;20053;-79
2021/11/28 05:40:10;;;;;;;93.65;74.82;;;;;;;-0.21;100.00;99742.06;5055548;28;20470;-79
2021/11/28 05:42:36;;;;;;;81.80;68.63;;;;;;;0.03;100.00;99741.28;5055403;28;20117;-78
2021/11/28 05:45:06;;;;;;;147.98;101.57;;;;;;;0.09;100.00;99749.31;5055070;28;20063;-79
2021/11/28 05:47:33;;;;;;;151.52;99.70;;;;;;;0.01;100.00;99754.53;5055661;28;20060;-78
2021/11/28 05:50:00;;;;;;;166.48;111.68;;;;;;;0.18;100.00;99765.78;5055213;28;20045;-76
2021/11/28 05:52:26;;;;;;;146.68;101.97;;;;;;;0.38;100.00;99766.28;5055551;28;20045;-79
2021/11/28 05:54:55;;;;;;;139.85;99.53;;;;;;;0.40;100.00;99765.16;5055477;28;20545;-80
2021/11/28 05:57:22;;;;;;;123.57;87.95;;;;;;;0.48;100.00;99777.41;5054608;28;20102;-77
2021/11/28 05:59:49;;;;;;;144.32;102.55;;;;;;;0.52;100.00;99773.50;5054918;28;20053;-77
2021/11/28 06:02:17;;;;;;;141.15;101.10;;;;;;;0.31;100.00;99792.25;5054433;28;20084;-80
2021/11/28 06:04:44;;;;;;;152.18;107.47;;;;;;;0.21;100.00;99791.56;5054586;28;20435;-77
2021/11/28 06:07:10;;;;;;;149.35;103.15;;;;;;;0.36;100.00;99796.97;5054215;28;20099;-79
2021/11/28 06:09:37;;;;;;;127.60;90.43;;;;;;;1.05;100.00;99792.22;5054807;28;20045;-77
2021/11/28 06:12:05;;;;;;;133.13;97.30;;;;;;;1.71;100.00;99800.69;5054655;28;20044;-80
2021/11/28 06:14:31;;;;;;;92.00;74.57;;;;;;;2.26;100.00;99800.50;5054761;28;20045;-79
2021/11/28 06:16:58;;;;;;;111.95;85.57;;;;;;;2.60;100.00;99780.13;5054264;28;20535;-77
2021/11/28 06:19:26;;;;;;;99.78;77.50;;;;;;;2.76;100.00;99785.25;5054406;28;20053;-77
2021/11/28 06:21:53;;;;;;;111.45;85.22;;;;;;;3.05;100.00;99783.63;5054584;28;20048;-77
2021/11/28 06:24:20;;;;;;;93.25;78.80;;;;;;;3.08;100.00;99770.16;5054045;28;20463;-78
2021/11/28 06:26:47;;;;;;;80.53;71.82;;;;;;;3.51;100.00;99770.31;5054422;28;20056;-77
2021/11/28 06:29:14;;;;;;;87.13;77.70;;;;;;;4.36;100.00;99770.47;5054014;28;20461;-78
2021/11/28 06:31:41;;;;;;;96.15;85.75;;;;;;;4.99;100.00;99764.47;5055401;28;20049;-79
2021/11/28 06:34:08;;;;;;;97.70;87.10;;;;;;;5.02;100.00;99758.81;5055075;28;20121;-78
2021/11/28 06:36:37;;;;;;;127.93;105.32;;;;;;;4.77;100.00;99767.16;5054863;28;20457;-79
2021/11/28 06:39:04;;;;;;;138.02;103.93;;;;;;;4.91;100.00;99765.44;5054998;28;20122;-77
2021/11/28 06:41:31;;;;;;;109.32;89.38;;;;;;;5.34;100.00;99767.13;5054953;28;20444;-80
2021/11/28 06:43:58;;;;;;;103.15;84.60;;;;;;;5.08;100.00;99763.31;5054864;28;20119;-80
2021/11/28 06:46:25;;;;;;;94.88;79.75;;;;;;;5.88;100.00;99761.88;5054892;28;20130;-79
2021/11/28 06:48:51;;;;;;;85.28;75.88;;;;;;;6.13;100.00;99769.25;5055184;28;20110;-78
2021/11/28 06:51:18;;;;;;;71.05;64.03;;;;;;;6.44;100.00;99773.97;5054878;28;20381;-80
2021/11/28 06:53:46;;;;;;;65.07;59.22;;;;;;;6.72;100.00;99767.66;5054916;28;20070;-78
2021/11/28 06:56:13;;;;;;;63.08;57.55;;;;;;;6.92;100.00;99773.75;5054734;28;20052;-80
2021/11/28 06:58:40;;;;;;;63.75;58.28;;;;;;;7.62;100.00;99786.41;5054711;28;20447;-77
2021/11/28 07:01:07;;;;;;;58.63;54.03;;;;;;;7.96;100.00;99787.91;5054444;28;20057;-80
2021/11/28 07:03:34;;;;;;;52.83;49.03;;;;;;;8.37;100.00;99799.84;5054477;28;20118;-80
2021/11/28 07:06:00;;;;;;;54.92;50.72;;;;;;;8.72;100.00;99802.91;5054076;28;20424;-80
2021/11/28 07:08:27;;;;;;;50.40;46.47;;;;;;;8.93;100.00;99809.66;5054410;28;20111;-82
2021/11/28 07:10:56;;;;;;;51.97;47.83;;;;;;;8.97;100.00;99820.63;5054599;28;20064;-79
2021/11/28 07:13:23;;;;;;;52.53;48.05;;;;;;;9.12;100.00;99826.41;5054483;28;20148;-78
2021/11/28 07:15:50;;;;;;;63.03;57.25;;;;;;;9.04;100.00;99824.81;5054694;28;20134;-81
2021/11/28 07:18:17;;;;;;;52.10;47.97;;;;;;;9.00;100.00;99828.13;5054227;28;20053;-82
2021/11/28 07:20:44;;;;;;;55.10;50.42;;;;;;;8.67;100.00;99823.91;5054418;28;20053;-80
2021/11/28 07:23:10;;;;;;;55.97;51.67;;;;;;;9.31;100.00;99833.34;5054669;28;20122;-78
2021/11/28 07:25:37;;;;;;;63.03;56.53;;;;;;;9.98;100.00;99835.25;5054205;28;20049;-79
2021/11/28 07:28:05;;;;;;;61.17;55.47;;;;;;;9.77;100.00;99834.72;5054504;28;20118;-80
2021/11/28 07:30:32;;;;;;;59.25;53.95;;;;;;;10.72;100.00;99825.28;5054246;28;20061;-79
2021/11/28 07:33:00;;;;;;;71.47;63.50;;;;;;;11.17;100.00;99819.44;5053583;28;20056;-78
2021/11/28 07:35:26;;;;;;;87.68;70.88;;;;;;;11.01;100.00;99812.94;5054209;28;20122;-79
2021/11/28 07:37:53;;;;;;;109.95;81.47;;;;;;;11.18;100.00;99808.56;5053823;28;20053;-80
2021/11/28 07:40:20;;;;;;;122.55;88.10;;;;;;;11.05;100.00;99808.00;5053893;28;20110;-80
2021/11/28 07:42:47;;;;;;;115.13;85.40;;;;;;;11.55;100.00;99804.81;5053932;28;20118;-80
2021/11/28 07:45:15;;;;;;;133.65;93.00;;;;;;;11.57;100.00;99818.69;5053669;28;20539;-80
2021/11/28 07:47:42;;;;;;;173.77;114.95;;;;;;;12.82;100.00;99823.16;5053842;28;20171;-80
2021/11/28 07:50:10;;;;;;;61.22;55.88;;;;;;;12.15;100.00;99841.72;5054176;28;20045;-81
2021/11/28 07:52:37;;;;;;;59.92;54.25;;;;;;;12.92;100.00;99837.69;5053745;28;20048;-78
2021/11/28 07:55:05;;;;;;;57.50;52.55;;;;;;;13.60;100.00;99822.47;5054062;28;20061;-80
2021/11/28 07:57:31;;;;;;;69.28;61.70;;;;;;;13.89;100.00;99820.41;5053321;28;20049;-78
2021/11/28 07:59:58;;;;;;;59.63;53.90;;;;;;;13.09;100.00;99835.03;5053399;28;20057;-79
2021/11/28 08:02:26;;;;;;;53.15;48.42;;;;;;;14.02;100.00;99838.72;5053392;28;20061;-80
2021/11/28 08:04:53;;;;;;;55.88;51.40;;;;;;;14.89;100.00;99850.28;5053557;28;20049;-78
2021/11/28 08:07:20;;;;;;;58.05;53.25;;;;;;;14.80;100.00;99843.78;5053541;28;20045;-80
2021/11/28 08:09:47;;;;;;;56.05;51.90;;;;;;;14.68;100.00;99848.50;5053908;28;20087;-82
2021/11/28 08:12:14;;;;;;;52.15;48.08;;;;;;;14.98;100.00;99856.78;5053409;28;20547;-80
2021/11/28 08:14:40;;;;;;;54.88;50.17;;;;;;;15.37;100.00;99850.34;5053474;28;20455;-78
2021/11/28 08:17:08;;;;;;;57.28;52.30;;;;;;;16.17;100.00;99843.78;5054065;28;20052;-80
2021/11/28 08:19:36;;;;;;;60.45;54.65;;;;;;;16.22;100.00;99851.81;5057262;28;20052;-80
2021/11/28 08:22:03;;;;;;;49.45;45.30;;;;;;;15.63;100.00;99851.28;5057735;28;20048;-79
2021/11/28 08:24:30;;;;;;;89.40;70.97;;;;;;;15.72;100.00;99831.03;5057563;28;20049;-80
2021/11/28 08:26:56;;;;;;;59.17;53.50;;;;;;;15.81;100.00;99829.44;5058018;28;20114;-81
2021/11/28 08:29:23;;;;;;;53.08;48.60;;;;;;;16.09;100.00;99833.56;5057199;28;20397;-80
2021/11/28 08:31:50;;;;;;;62.45;55.75;;;;;;;16.20;100.00;99829.03;5057398;28;20049;-78
2021/11/28 08:34:17;;;;;;;54.22;49.42;;;;;;;15.75;100.00;99815.25;5057169;28;20107;-79
2021/11/28 08:36:45;;;;;;;54.28;49.38;;;;;;;16.00;100.00;99817.19;5057505;28;20049;-80
2021/11/28 08:39:13;;;;;;;48.72;44.83;;;;;;;16.21;100.00;99819.94;5057651;28;20118;-80
2021/11/28 08:41:40;;;;;;;56.65;51.15;;;;;;;17.04;100.00;99830.47;5057415;28;20052;-78
2021/11/28 08:44:08;;;;;;;52.08;47.38;;;;;;;17.34;100.00;99810.84;5057705;28;20126;-81
2021/11/28 08:46:35;;;;;;;53.83;48.80;;;;;;;17.96;100.00;99816.00;5057573;28;20056;-78
2021/11/28 08:49:01;;;;;;;58.95;53.35;;;;;;;17.58;100.00;99810.22;5057460;28;20111;-80
2021/11/28 08:51:29;;;;;;;56.88;51.90;;;;;;;17.45;100.00;99803.53;5057505;28;20044;-80
2021/11/28 08:53:59;;;;;;;52.17;47.92;;;;;;;17.63;100.00;99810.19;5058105;28;20061;-79
2021/11/28 08:56:27;;;;;;;48.22;44.65;;;;;;;17.21;100.00;99807.91;5057485;28;20132;-80
2021/11/28 08:58:54;;;;;;;47.67;44.10;;;;;;;17.36;100.00;99784.50;5057140;28;20041;-83
2021/11/28 09:01:21;;;;;;;51.78;47.65;;;;;;;18.33;100.00;99771.69;5056872;28;20049;-78
2021/11/28 09:03:47;;;;;;;51.47;46.88;;;;;;;18.83;100.00;99767.81;5056643;28;20049;-79
2021/11/28 09:06:14;;;;;;;68.70;59.15;;;;;;;18.54;100.00;99765.88;5057168;28;20118;-78
2021/11/28 09:08:41;;;;;;;56.28;50.92;;;;;;;19.34;100.00;99753.84;5057772;28;20048;-78
2021/11/28 09:11:10;;;;;;;53.60;49.08;;;;;;;19.40;100.00;99750.00;5057792;28;20523;-79
2021/11/28 09:13:38;;;;;;;54.15;49.65;;;;;;;19.98;100.00;99756.28;5057527;28;20048;-80
2021/11/28 09:16:07;;;;;;;50.63;47.03;;;;;;;19.58;100.00;99756.50;5056793;28;20118;-79
2021/11/28 09:18:37;;;;;;;50.70;46.90;;;;;;;18.86;100.00;99769.94;5057351;28;20057;-79
2021/11/28 09:21:04;;;;;;;47.88;44.28;;;;;;;19.90;100.00;99765.81;5058123;28;20116;-78
2021/11/28 09:26:16;;;;;;;56.78;51.22;;;;;;;19.99;100.00;99772.13;5057405;28;20543;-78
2021/11/28 09:28:43;;;;;;;48.30;44.15;;;;;;;19.85;100.00;99782.06;5056989;28;20041;-80
2021/11/28 09:31:11;;;;;;;49.45;46.03;;;;;;;18.33;100.00;99801.25;5056477;28;20115;-79
2021/11/28 09:33:38;;;;;;;49.80;46.10;;;;;;;16.60;99.05;99814.88;5056799;28;20470;-78
2021/11/28 09:36:05;;;;;;;47.92;44.35;;;;;;;17.30;100.00;99817.00;5056111;28;20550;-79
2021/11/28 09:38:32;;;;;;;50.95;47.00;;;;;;;15.69;100.00;99818.16;5056869;28;20473;-78
2021/11/28 09:41:03;;;;;;;51.88;47.50;;;;;;;14.79;100.00;99820.78;5056446;28;20114;-77
2021/11/28 09:43:34;;;;;;;47.72;43.78;;;;;;;15.23;100.00;99807.19;5057911;28;20126;-77
2021/11/28 09:46:03;;;;;;;49.05;44.85;;;;;;;14.74;100.00;99797.50;5056166;28;20053;-80
2021/11/28 09:48:32;;;;;;;48.88;44.65;;;;;;;17.86;100.00;99781.94;5056216;28;20485;-78
2021/11/28 09:50:59;;;;;;;53.75;48.25;;;;;;;16.25;100.00;99786.19;5057734;28;20114;-78
2021/11/28 09:53:27;;;;;;;50.20;45.90;;;;;;;16.66;100.00;99791.56;5056766;28;20137;-79
2021/11/28 09:55:57;;;;;;;50.50;46.33;;;;;;;14.69;100.00;99799.31;5056230;28;20527;-78
2021/11/28 09:58:24;;;;;;;48.42;44.38;;;;;;;15.90;100.00;99785.03;5056177;28;20045;-77
2021/11/28 10:00:52;;;;;;;45.30;41.67;;;;;;;15.72;100.00;99785.50;5057255;28;20065;-78
2021/11/28 10:03:19;;;;;;;45.55;42.10;;;;;;;15.40;100.00;99764.19;5056332;28;20485;-79
2021/11/28 10:05:48;;;;;;;43.83;40.35;;;;;;;15.23;100.00;99773.22;5057030;28;20053;-78
2021/11/28 10:08:15;;;;;;;48.75;45.47;;;;;;;15.76;100.00;99762.50;5055663;28;20136;-77
2021/11/28 10:10:44;;;;;;;50.53;46.72;;;;;;;16.32;100.00;99759.13;5056732;28;20048;-78
2021/11/28 10:13:13;;;;;;;49.70;46.40;;;;;;;17.53;100.00;99737.75;5055808;28;20072;-77
2021/11/28 10:15:40;;;;;;;48.75;45.55;;;;;;;17.78;100.00;99737.66;5056560;28;20114;-78
2021/11/28 10:18:09;;;;;;;48.78;45.28;;;;;;;17.60;100.00;99722.94;5057149;28;20056;-77
2021/11/28 10:20:38;;;;;;;42.80;39.70;;;;;;;15.61;94.53;99732.97;5056301;28;20069;-78
2021/11/28 10:23:06;;;;;;;46.33;42.63;;;;;;;16.44;100.00;99732.88;5056150;28;20049;-78
2021/11/28 10:25:33;;;;;;;42.35;39.22;;;;;;;16.81;99.67;99721.06;5055626;28;20114;-77
2021/11/28 10:28:05;;;;;;;43.95;40.45;;;;;;;17.33;100.00;99712.59;5056709;28;20112;-78
2021/11/28 10:30:37;;;;;;;57.42;52.08;;;;;;;18.04;100.00;99708.75;5055942;28;20135;-79
2021/11/28 10:33:05;;;;;;;;;;;;;;;18.02;100.00;99702.06;5057731;28;20048;-78
2021/11/28 10:35:33;;;;;;;49.70;45.85;;;;;;;17.80;100.00;99714.00;5055149;28;20422;-78
2021/11/28 10:38:10;;;;;;;48.28;44.95;;;;;;;17.96;100.00;99706.66;5056145;28;20049;-77
2021/11/28 10:40:37;;;;;;;51.88;48.08;;;;;;;18.11;100.00;99713.00;5054559;28;20489;-78
2021/11/28 10:43:10;;;;;;;51.88;48.30;;;;;;;17.97;99.17;99721.72;5056074;28;20118;-78
2021/11/28 10:45:37;;;;;;;;;;;;;;;17.65;94.57;99726.69;5057361;28;20114;-79
2021/11/28 10:48:06;;;;;;;46.17;42.88;;;;;;;15.71;95.99;99728.50;5055681;28;19928;-77
2021/11/28 10:50:35;;;;;;;44.00;41.08;;;;;;;17.87;100.00;99724.44;5055827;28;20049;-78
2021/11/28 10:53:05;;;;;;;46.97;44.00;;;;;;;18.59;99.01;99737.34;5055754;28;20045;-78
2021/11/28 10:55:34;;;;;;;51.47;47.42;;;;;;;16.75;88.97;99735.53;5055176;28;20064;-81
2021/11/28 10:58:07;;;;;;;45.65;42.38;;;;;;;16.74;100.00;99736.63;5055941;28;20433;-79
2021/11/28 11:00:35;;;;;;;43.10;40.05;;;;;;;16.26;95.27;99748.41;5055578;28;20114;-78
2021/11/28 11:03:14;;;;;;;46.03;42.58;;;;;;;17.14;100.00;99743.81;5055165;28;20049;-77
2021/11/28 11:05:43;;;;;;;43.42;40.63;;;;;;;17.76;100.00;99745.16;5055601;28;20110;-78
2021/11/28 11:08:10;;;;;;;47.10;43.80;;;;;;;17.65;100.00;99745.50;5055985;28;20049;-77
2021/11/28 11:10:37;;;;;;;44.13;41.00;;;;;;;18.86;100.00;99751.13;5055273;28;20568;-79
2021/11/28 11:13:05;;;;;;;50.03;46.55;;;;;;;17.45;100.00;99746.38;5055922;28;20041;-78
2021/11/28 11:15:35;;;;;;;49.42;45.72;;;;;;;16.47;100.00;99738.50;5056987;28;20122;-79
2021/11/28 11:18:04;;;;;;;50.15;46.40;;;;;;;16.59;100.00;99738.22;5055208;28;20053;-79
2021/11/28 11:20:33;;;;;;;44.58;41.22;;;;;;;12.10;100.00;99735.97;5056642;28;20060;-80